sensor_id;sensor_type;location;lat;lon;timestamp;pressure;altitude;pressure_sealevel;temperature;humidity
37298;BME280;30517;51.932;4.278;2024-03-06T00:02:08;101834.25;;;8.17;77.30
37298;BME280;30517;51.932;4.278;2024-03-06T00:04:49;101840.44;;;8.19;77.38
37298;BME280;30517;51.932;4.278;2024-03-06T00:07:30;101839.44;;;8.15;77.99
37298;BME280;30517;51.932;4.278;2024-03-06T00:10:11;101833.81;;;7.98;77.59
37298;BME280;30517;51.932;4.278;2024-03-06T00:12:52;101827.72;;;8.01;77.56
37298;BME280;30517;51.932;4.278;2024-03-06T00:15:33;101837.41;;;8.02;77.45
37298;BME280;30517;51.932;4.278;2024-03-06T00:18:14;101867.47;;;8.13;77.64
37298;BME280;30517;51.932;4.278;2024-03-06T00:20:55;101859.34;;;8.04;77.38
37298;BME280;30517;51.932;4.278;2024-03-06T00:23:36;101847.81;;;7.97;77.96
37298;BME280;30517;51.932;4.278;2024-03-06T00:26:17;101859.31;;;8.03;78.37
37298;BME280;30517;51.932;4.278;2024-03-06T00:28:58;101853.13;;;8.01;77.69
37298;BME280;30517;51.932;4.278;2024-03-06T00:31:43;101859.25;;;8.01;78.05
37298;BME280;30517;51.932;4.278;2024-03-06T00:34:24;101854.94;;;8.03;78.34
37298;BME280;30517;51.932;4.278;2024-03-06T00:37:05;101850.56;;;8.02;77.98
37298;BME280;30517;51.932;4.278;2024-03-06T00:39:46;101851.44;;;8.03;77.27
37298;BME280;30517;51.932;4.278;2024-03-06T00:42:26;101855.81;;;8.04;77.81
37298;BME280;30517;51.932;4.278;2024-03-06T00:45:08;101847.66;;;7.91;78.00
37298;BME280;30517;51.932;4.278;2024-03-06T00:47:48;101864.56;;;8.03;77.55
37298;BME280;30517;51.932;4.278;2024-03-06T00:50:29;101874.09;;;7.99;77.90
37298;BME280;30517;51.932;4.278;2024-03-06T00:53:10;101875.28;;;8.10;77.25
37298;BME280;30517;51.932;4.278;2024-03-06T00:55:51;101872.38;;;8.00;77.57
37298;BME280;30517;51.932;4.278;2024-03-06T00:58:32;101880.44;;;8.07;77.71
37298;BME280;30517;51.932;4.278;2024-03-06T01:01:15;101864.44;;;7.98;77.29
37298;BME280;30517;51.932;4.278;2024-03-06T01:03:56;101873.47;;;8.09;77.43
37298;BME280;30517;51.932;4.278;2024-03-06T01:06:37;101869.75;;;8.00;77.55
37298;BME280;30517;51.932;4.278;2024-03-06T01:09:18;101859.75;;;7.85;77.72
37298;BME280;30517;51.932;4.278;2024-03-06T01:11:59;101887.41;;;8.05;77.49
37298;BME280;30517;51.932;4.278;2024-03-06T01:14:39;101894.28;;;8.00;77.81
37298;BME280;30517;51.932;4.278;2024-03-06T01:17:20;101885.41;;;7.96;77.84
37298;BME280;30517;51.932;4.278;2024-03-06T01:20:01;101882.78;;;7.96;77.78
37298;BME280;30517;51.932;4.278;2024-03-06T01:22:44;101865.84;;;7.84;78.14
37298;BME280;30517;51.932;4.278;2024-03-06T01:25:26;101876.38;;;7.85;77.89
37298;BME280;30517;51.932;4.278;2024-03-06T01:28:07;101884.50;;;7.94;78.10
37298;BME280;30517;51.932;4.278;2024-03-06T01:30:48;101886.41;;;8.00;78.43
37298;BME280;30517;51.932;4.278;2024-03-06T01:33:29;101886.28;;;7.95;78.29
37298;BME280;30517;51.932;4.278;2024-03-06T01:36:10;101868.56;;;7.88;78.62
37298;BME280;30517;51.932;4.278;2024-03-06T01:38:51;101877.38;;;7.89;78.56
37298;BME280;30517;51.932;4.278;2024-03-06T01:41:31;101889.59;;;7.88;78.49
37298;BME280;30517;51.932;4.278;2024-03-06T01:44:13;101895.97;;;7.98;78.67
37298;BME280;30517;51.932;4.278;2024-03-06T01:46:55;101890.59;;;7.93;77.96
37298;BME280;30517;51.932;4.278;2024-03-06T01:49:36;101890.78;;;8.01;77.65
37298;BME280;30517;51.932;4.278;2024-03-06T01:52:18;101843.63;;;7.71;78.42
37298;BME280;30517;51.932;4.278;2024-03-06T01:55:00;101895.09;;;7.97;77.68
37298;BME280;30517;51.932;4.278;2024-03-06T01:57:41;101897.72;;;7.97;77.56
37298;BME280;30517;51.932;4.278;2024-03-06T02:00:23;101894.84;;;7.88;78.01
37298;BME280;30517;51.932;4.278;2024-03-06T02:03:04;101884.97;;;7.78;78.47
37298;BME280;30517;51.932;4.278;2024-03-06T02:05:45;101904.38;;;7.83;78.54
37298;BME280;30517;51.932;4.278;2024-03-06T02:08:27;101912.56;;;7.95;78.30
37298;BME280;30517;51.932;4.278;2024-03-06T02:11:08;101912.41;;;7.89;78.40
37298;BME280;30517;51.932;4.278;2024-03-06T02:13:49;101909.78;;;7.89;77.96
37298;BME280;30517;51.932;4.278;2024-03-06T02:16:31;101896.50;;;7.83;78.27
37298;BME280;30517;51.932;4.278;2024-03-06T02:19:11;101925.63;;;7.92;78.25
37298;BME280;30517;51.932;4.278;2024-03-06T02:21:52;101869.66;;;7.62;78.46
37298;BME280;30517;51.932;4.278;2024-03-06T02:24:34;101899.75;;;7.74;78.27
37298;BME280;30517;51.932;4.278;2024-03-06T02:27:15;101909.66;;;7.85;78.23
37298;BME280;30517;51.932;4.278;2024-03-06T02:29:56;101917.66;;;7.89;78.15
37298;BME280;30517;51.932;4.278;2024-03-06T02:32:37;101916.72;;;7.87;78.29
37298;BME280;30517;51.932;4.278;2024-03-06T02:35:18;101896.50;;;7.83;78.00
37298;BME280;30517;51.932;4.278;2024-03-06T02:38:00;101914.91;;;7.85;78.13
37298;BME280;30517;51.932;4.278;2024-03-06T02:40:43;101922.03;;;7.90;77.90
37298;BME280;30517;51.932;4.278;2024-03-06T02:43:25;101915.84;;;7.88;78.31
37298;BME280;30517;51.932;4.278;2024-03-06T02:46:06;101906.94;;;7.82;77.91
37298;BME280;30517;51.932;4.278;2024-03-06T02:48:46;101899.00;;;7.79;77.84
37298;BME280;30517;51.932;4.278;2024-03-06T02:51:27;101912.31;;;7.86;78.20
37298;BME280;30517;51.932;4.278;2024-03-06T02:54:08;101896.50;;;7.83;78.33
37298;BME280;30517;51.932;4.278;2024-03-06T02:56:51;101906.19;;;7.86;78.11
37298;BME280;30517;51.932;4.278;2024-03-06T02:59:32;101899.78;;;7.76;78.22
37298;BME280;30517;51.932;4.278;2024-03-06T03:02:13;101924.81;;;7.96;77.60
37298;BME280;30517;51.932;4.278;2024-03-06T03:04:54;101900.72;;;7.78;77.81
37298;BME280;30517;51.932;4.278;2024-03-06T03:07:35;101928.25;;;7.92;77.90
37298;BME280;30517;51.932;4.278;2024-03-06T03:10:16;101937.25;;;8.02;77.48
37298;BME280;30517;51.932;4.278;2024-03-06T03:12:57;101910.38;;;7.79;77.63
37298;BME280;30517;51.932;4.278;2024-03-06T03:15:37;101936.13;;;7.92;77.82
37298;BME280;30517;51.932;4.278;2024-03-06T03:18:20;101919.28;;;7.84;78.13
37298;BME280;30517;51.932;4.278;2024-03-06T03:21:01;101934.09;;;7.82;78.19
37298;BME280;30517;51.932;4.278;2024-03-06T03:23:42;101926.28;;;7.84;78.16
37298;BME280;30517;51.932;4.278;2024-03-06T03:26:23;101922.19;;;7.96;77.79
37298;BME280;30517;51.932;4.278;2024-03-06T03:29:04;101921.13;;;7.88;77.98
37298;BME280;30517;51.932;4.278;2024-03-06T03:31:45;101923.72;;;7.87;77.48
37298;BME280;30517;51.932;4.278;2024-03-06T03:34:26;101912.63;;;7.98;77.22
37298;BME280;30517;51.932;4.278;2024-03-06T03:37:07;101923.56;;;7.81;77.83
37298;BME280;30517;51.932;4.278;2024-03-06T03:39:49;101933.06;;;7.77;78.23
37298;BME280;30517;51.932;4.278;2024-03-06T03:42:29;101907.75;;;7.79;77.31
37298;BME280;30517;51.932;4.278;2024-03-06T03:45:10;101914.69;;;7.75;78.20
37298;BME280;30517;51.932;4.278;2024-03-06T03:47:51;101920.03;;;7.80;77.75
37298;BME280;30517;51.932;4.278;2024-03-06T03:50:32;101871.00;;;7.47;77.85
37298;BME280;30517;51.932;4.278;2024-03-06T03:53:13;101899.31;;;7.58;77.76
37298;BME280;30517;51.932;4.278;2024-03-06T03:55:54;101907.25;;;7.61;78.57
37298;BME280;30517;51.932;4.278;2024-03-06T03:58:34;101909.38;;;7.74;77.66
37298;BME280;30517;51.932;4.278;2024-03-06T04:01:15;101930.91;;;7.94;76.87
37298;BME280;30517;51.932;4.278;2024-03-06T04:03:56;101916.38;;;7.73;77.84
37298;BME280;30517;51.932;4.278;2024-03-06T04:06:37;101942.69;;;7.75;78.15
37298;BME280;30517;51.932;4.278;2024-03-06T04:09:18;101925.97;;;7.73;78.43
37298;BME280;30517;51.932;4.278;2024-03-06T04:11:59;101926.53;;;7.61;78.00
37298;BME280;30517;51.932;4.278;2024-03-06T04:14:40;101929.34;;;7.69;78.10
37298;BME280;30517;51.932;4.278;2024-03-06T04:17:20;101947.00;;;7.73;77.85
37298;BME280;30517;51.932;4.278;2024-03-06T04:20:02;101952.31;;;7.76;77.73
37298;BME280;30517;51.932;4.278;2024-03-06T04:22:44;101952.91;;;7.64;78.23
37298;BME280;30517;51.932;4.278;2024-03-06T04:25:26;101944.97;;;7.63;78.45
37298;BME280;30517;51.932;4.278;2024-03-06T04:28:07;101949.34;;;7.64;78.17
37298;BME280;30517;51.932;4.278;2024-03-06T04:30:48;101939.53;;;7.57;78.41
37298;BME280;30517;51.932;4.278;2024-03-06T04:33:28;101952.84;;;7.63;78.53
37298;BME280;30517;51.932;4.278;2024-03-06T04:36:09;101942.13;;;7.55;78.12
37298;BME280;30517;51.932;4.278;2024-03-06T04:38:50;101949.28;;;7.61;78.08
37298;BME280;30517;51.932;4.278;2024-03-06T04:41:31;101933.19;;;7.48;78.35
37298;BME280;30517;51.932;4.278;2024-03-06T04:44:12;101935.94;;;7.53;78.42
37298;BME280;30517;51.932;4.278;2024-03-06T04:46:53;101961.53;;;7.60;78.27
37298;BME280;30517;51.932;4.278;2024-03-06T04:49:34;101961.34;;;7.54;78.37
37298;BME280;30517;51.932;4.278;2024-03-06T04:52:14;101954.06;;;7.44;78.17
37298;BME280;30517;51.932;4.278;2024-03-06T04:54:55;101949.53;;;7.38;78.14
37298;BME280;30517;51.932;4.278;2024-03-06T04:57:42;101979.69;;;7.52;77.93
37298;BME280;30517;51.932;4.278;2024-03-06T05:00:22;101968.00;;;7.41;78.62
37298;BME280;30517;51.932;4.278;2024-03-06T05:03:04;101971.50;;;7.42;78.52
37298;BME280;30517;51.932;4.278;2024-03-06T05:05:45;101987.47;;;7.49;78.92
37298;BME280;30517;51.932;4.278;2024-03-06T05:08:26;101992.63;;;7.46;78.57
37298;BME280;30517;51.932;4.278;2024-03-06T05:11:06;101997.13;;;7.50;78.46
37298;BME280;30517;51.932;4.278;2024-03-06T05:13:48;101989.03;;;7.43;78.22
37298;BME280;30517;51.932;4.278;2024-03-06T05:16:29;101983.50;;;7.34;78.73
37298;BME280;30517;51.932;4.278;2024-03-06T05:19:10;102004.81;;;7.44;78.12
37298;BME280;30517;51.932;4.278;2024-03-06T05:21:51;101999.66;;;7.47;78.09
37298;BME280;30517;51.932;4.278;2024-03-06T05:24:32;102000.19;;;7.36;78.67
37298;BME280;30517;51.932;4.278;2024-03-06T05:27:13;102002.16;;;7.43;78.21
37298;BME280;30517;51.932;4.278;2024-03-06T05:29:57;101994.50;;;7.50;77.83
37298;BME280;30517;51.932;4.278;2024-03-06T05:32:38;101996.13;;;7.45;77.57
37298;BME280;30517;51.932;4.278;2024-03-06T05:35:18;102009.03;;;7.39;77.82
37298;BME280;30517;51.932;4.278;2024-03-06T05:37:59;102010.84;;;7.40;78.08
37298;BME280;30517;51.932;4.278;2024-03-06T05:40:40;101966.16;;;7.08;77.93
37298;BME280;30517;51.932;4.278;2024-03-06T05:43:25;102016.19;;;7.43;78.09
37298;BME280;30517;51.932;4.278;2024-03-06T05:46:06;102004.56;;;7.35;77.56
37298;BME280;30517;51.932;4.278;2024-03-06T05:48:47;102014.13;;;7.33;77.61
37298;BME280;30517;51.932;4.278;2024-03-06T05:51:29;102029.88;;;7.33;78.29
37298;BME280;30517;51.932;4.278;2024-03-06T05:54:10;102006.09;;;7.28;77.96
37298;BME280;30517;51.932;4.278;2024-03-06T05:56:51;101979.22;;;7.07;77.75
37298;BME280;30517;51.932;4.278;2024-03-06T05:59:33;102007.66;;;7.22;77.91
37298;BME280;30517;51.932;4.278;2024-03-06T06:02:14;102035.19;;;7.35;77.89
37298;BME280;30517;51.932;4.278;2024-03-06T06:04:59;102019.53;;;7.38;77.40
37298;BME280;30517;51.932;4.278;2024-03-06T06:07:40;102037.28;;;7.46;77.13
37298;BME280;30517;51.932;4.278;2024-03-06T06:10:21;102033.69;;;7.44;76.91
37298;BME280;30517;51.932;4.278;2024-03-06T06:13:02;102026.59;;;7.40;76.83
37298;BME280;30517;51.932;4.278;2024-03-06T06:15:44;102040.38;;;7.33;77.25
37298;BME280;30517;51.932;4.278;2024-03-06T06:18:25;102058.22;;;7.16;76.52
37298;BME280;30517;51.932;4.278;2024-03-06T06:21:06;102066.16;;;7.46;75.69
37298;BME280;30517;51.932;4.278;2024-03-06T06:23:48;102050.06;;;7.36;75.07
37298;BME280;30517;51.932;4.278;2024-03-06T06:26:29;102059.31;;;7.23;75.97
37298;BME280;30517;51.932;4.278;2024-03-06T06:29:11;102077.56;;;7.20;76.59
37298;BME280;30517;51.932;4.278;2024-03-06T06:31:51;102081.00;;;7.17;76.52
37298;BME280;30517;51.932;4.278;2024-03-06T06:34:32;102055.19;;;7.02;76.71
37298;BME280;30517;51.932;4.278;2024-03-06T06:37:14;102093.31;;;7.20;76.23
37298;BME280;30517;51.932;4.278;2024-03-06T06:39:55;102100.84;;;7.09;77.11
37298;BME280;30517;51.932;4.278;2024-03-06T06:42:36;102082.25;;;7.01;76.78
37298;BME280;30517;51.932;4.278;2024-03-06T06:45:20;102104.59;;;7.16;76.95
37298;BME280;30517;51.932;4.278;2024-03-06T06:48:05;102105.31;;;7.12;76.68
37298;BME280;30517;51.932;4.278;2024-03-06T06:50:46;102112.13;;;7.06;76.92
37298;BME280;30517;51.932;4.278;2024-03-06T06:53:31;102110.97;;;6.97;77.09
37298;BME280;30517;51.932;4.278;2024-03-06T06:56:12;102095.22;;;6.97;76.81
37298;BME280;30517;51.932;4.278;2024-03-06T06:58:53;102115.81;;;7.12;76.62
37298;BME280;30517;51.932;4.278;2024-03-06T07:01:33;102129.03;;;7.15;76.67
37298;BME280;30517;51.932;4.278;2024-03-06T07:04:14;102121.69;;;7.04;76.85
37298;BME280;30517;51.932;4.278;2024-03-06T07:07:00;102122.13;;;6.91;77.29
37298;BME280;30517;51.932;4.278;2024-03-06T07:09:40;102135.31;;;6.93;77.27
37298;BME280;30517;51.932;4.278;2024-03-06T07:12:21;102141.63;;;6.99;77.22
37298;BME280;30517;51.932;4.278;2024-03-06T07:15:02;102141.53;;;6.96;76.86
37298;BME280;30517;51.932;4.278;2024-03-06T07:17:43;102144.16;;;6.96;77.17
37298;BME280;30517;51.932;4.278;2024-03-06T07:20:24;102147.44;;;6.89;77.03
37298;BME280;30517;51.932;4.278;2024-03-06T07:23:05;102136.72;;;6.83;77.20
37298;BME280;30517;51.932;4.278;2024-03-06T07:25:46;102149.88;;;6.84;77.39
37298;BME280;30517;51.932;4.278;2024-03-06T07:28:26;102154.41;;;6.63;78.06
37298;BME280;30517;51.932;4.278;2024-03-06T07:31:07;102140.88;;;6.76;77.09
37298;BME280;30517;51.932;4.278;2024-03-06T07:33:48;102171.97;;;6.91;76.55
37298;BME280;30517;51.932;4.278;2024-03-06T07:36:29;102163.72;;;6.80;76.89
37298;BME280;30517;51.932;4.278;2024-03-06T07:39:10;102157.31;;;6.72;77.33
37298;BME280;30517;51.932;4.278;2024-03-06T07:41:52;102183.91;;;6.83;77.13
37298;BME280;30517;51.932;4.278;2024-03-06T07:44:34;102191.19;;;6.90;77.30
37298;BME280;30517;51.932;4.278;2024-03-06T07:47:16;102187.41;;;6.82;77.22
37298;BME280;30517;51.932;4.278;2024-03-06T07:49:57;102196.03;;;6.79;76.64
37298;BME280;30517;51.932;4.278;2024-03-06T07:52:38;102201.47;;;6.84;77.38
37298;BME280;30517;51.932;4.278;2024-03-06T07:55:19;102182.53;;;6.67;77.04
37298;BME280;30517;51.932;4.278;2024-03-06T07:58:01;102193.25;;;6.75;77.31
37298;BME280;30517;51.932;4.278;2024-03-06T08:00:42;102189.56;;;6.70;77.02
37298;BME280;30517;51.932;4.278;2024-03-06T08:03:23;102192.19;;;6.70;77.18
37298;BME280;30517;51.932;4.278;2024-03-06T08:06:04;102217.13;;;6.82;77.46
37298;BME280;30517;51.932;4.278;2024-03-06T08:08:45;102222.34;;;6.81;77.62
37298;BME280;30517;51.932;4.278;2024-03-06T08:11:27;102206.66;;;6.58;77.52
37298;BME280;30517;51.932;4.278;2024-03-06T08:14:08;102215.88;;;6.71;77.82
37298;BME280;30517;51.932;4.278;2024-03-06T08:16:49;102216.44;;;6.62;77.96
37298;BME280;30517;51.932;4.278;2024-03-06T08:19:29;102225.25;;;6.64;78.10
37298;BME280;30517;51.932;4.278;2024-03-06T08:22:10;102195.91;;;6.51;77.77
37298;BME280;30517;51.932;4.278;2024-03-06T08:24:51;102217.72;;;6.74;77.51
37298;BME280;30517;51.932;4.278;2024-03-06T08:27:32;102222.84;;;6.71;78.00
37298;BME280;30517;51.932;4.278;2024-03-06T08:30:13;102202.84;;;6.49;78.04
37298;BME280;30517;51.932;4.278;2024-03-06T08:32:54;102205.84;;;6.59;77.78
37298;BME280;30517;51.932;4.278;2024-03-06T08:35:35;102228.00;;;6.68;78.10
37298;BME280;30517;51.932;4.278;2024-03-06T08:38:16;102231.22;;;6.60;78.25
37298;BME280;30517;51.932;4.278;2024-03-06T08:40:57;102249.00;;;6.69;78.19
37298;BME280;30517;51.932;4.278;2024-03-06T08:43:38;102236.75;;;6.68;77.69
37298;BME280;30517;51.932;4.278;2024-03-06T08:46:19;102251.19;;;6.81;77.65
37298;BME280;30517;51.932;4.278;2024-03-06T08:49:00;102231.44;;;6.67;77.90
37298;BME280;30517;51.932;4.278;2024-03-06T08:51:41;102254.34;;;6.72;78.17
37298;BME280;30517;51.932;4.278;2024-03-06T08:54:22;102259.75;;;6.75;77.95
37298;BME280;30517;51.932;4.278;2024-03-06T08:57:03;102251.00;;;6.76;77.64
37298;BME280;30517;51.932;4.278;2024-03-06T08:59:44;102265.09;;;6.78;78.00
37298;BME280;30517;51.932;4.278;2024-03-06T09:02:25;102252.75;;;6.76;77.85
37298;BME280;30517;51.932;4.278;2024-03-06T09:05:07;102266.94;;;6.81;77.99
37298;BME280;30517;51.932;4.278;2024-03-06T09:07:50;102261.41;;;6.73;77.81
37298;BME280;30517;51.932;4.278;2024-03-06T09:10:31;102275.78;;;6.84;77.70
37298;BME280;30517;51.932;4.278;2024-03-06T09:13:11;102270.47;;;6.83;77.40
37298;BME280;30517;51.932;4.278;2024-03-06T09:15:52;102247.63;;;6.79;77.20
37298;BME280;30517;51.932;4.278;2024-03-06T09:18:33;102260.13;;;6.86;77.53
37298;BME280;30517;51.932;4.278;2024-03-06T09:21:14;102260.72;;;6.79;77.48
37298;BME280;30517;51.932;4.278;2024-03-06T09:23:55;102272.88;;;6.77;78.06
37298;BME280;30517;51.932;4.278;2024-03-06T09:26:36;102275.00;;;6.87;77.91
37298;BME280;30517;51.932;4.278;2024-03-06T09:29:17;102268.88;;;6.86;77.91
37298;BME280;30517;51.932;4.278;2024-03-06T09:31:58;102271.72;;;6.93;77.38
37298;BME280;30517;51.932;4.278;2024-03-06T09:34:39;102282.88;;;6.87;77.69
37298;BME280;30517;51.932;4.278;2024-03-06T09:37:20;102269.75;;;6.87;77.72
37298;BME280;30517;51.932;4.278;2024-03-06T09:40:01;102271.31;;;6.82;77.67
37298;BME280;30517;51.932;4.278;2024-03-06T09:42:43;102273.44;;;6.92;77.69
37298;BME280;30517;51.932;4.278;2024-03-06T09:45:24;102279.50;;;6.91;77.77
37298;BME280;30517;51.932;4.278;2024-03-06T09:48:06;102270.13;;;6.98;77.11
37298;BME280;30517;51.932;4.278;2024-03-06T09:50:49;102271.91;;;6.99;77.41
37298;BME280;30517;51.932;4.278;2024-03-06T09:53:32;102286.72;;;6.97;77.46
37298;BME280;30517;51.932;4.278;2024-03-06T09:56:13;102274.06;;;6.85;77.38
37298;BME280;30517;51.932;4.278;2024-03-06T09:58:54;102279.69;;;6.96;77.14
37298;BME280;30517;51.932;4.278;2024-03-06T10:01:39;102306.13;;;7.02;77.34
37298;BME280;30517;51.932;4.278;2024-03-06T10:04:26;102305.47;;;7.07;77.14
37298;BME280;30517;51.932;4.278;2024-03-06T10:07:07;102300.84;;;7.00;77.27
37298;BME280;30517;51.932;4.278;2024-03-06T10:09:49;102307.16;;;7.05;77.25
37298;BME280;30517;51.932;4.278;2024-03-06T10:12:30;102290.28;;;6.99;77.28
37298;BME280;30517;51.932;4.278;2024-03-06T10:15:10;102296.53;;;7.02;77.06
37298;BME280;30517;51.932;4.278;2024-03-06T10:17:52;102308.50;;;7.20;76.62
37298;BME280;30517;51.932;4.278;2024-03-06T10:20:35;102303.78;;;7.09;77.12
37298;BME280;30517;51.932;4.278;2024-03-06T10:23:17;102314.38;;;7.13;77.20
37298;BME280;30517;51.932;4.278;2024-03-06T10:25:59;102319.50;;;7.34;76.76
37298;BME280;30517;51.932;4.278;2024-03-06T10:28:44;102309.97;;;7.12;77.02
37298;BME280;30517;51.932;4.278;2024-03-06T10:31:28;102310.72;;;7.07;77.16
37298;BME280;30517;51.932;4.278;2024-03-06T10:34:09;102305.34;;;7.04;76.86
37298;BME280;30517;51.932;4.278;2024-03-06T10:37:01;102325.03;;;7.17;77.40
37298;BME280;30517;51.932;4.278;2024-03-06T10:39:47;102313.34;;;7.33;76.41
37298;BME280;30517;51.932;4.278;2024-03-06T10:42:35;102326.00;;;7.19;77.11
37298;BME280;30517;51.932;4.278;2024-03-06T10:45:17;102311.44;;;7.29;76.63
37298;BME280;30517;51.932;4.278;2024-03-06T10:48:01;102347.75;;;7.41;76.16
37298;BME280;30517;51.932;4.278;2024-03-06T10:50:44;102331.66;;;7.31;76.66
37298;BME280;30517;51.932;4.278;2024-03-06T10:53:26;102337.44;;;7.21;77.30
37298;BME280;30517;51.932;4.278;2024-03-06T10:56:08;102332.03;;;7.17;77.33
37298;BME280;30517;51.932;4.278;2024-03-06T10:58:50;102340.31;;;7.29;77.01
37298;BME280;30517;51.932;4.278;2024-03-06T11:01:32;102343.75;;;7.26;76.91
37298;BME280;30517;51.932;4.278;2024-03-06T11:04:13;102348.03;;;7.48;76.03
37298;BME280;30517;51.932;4.278;2024-03-06T11:06:56;102346.59;;;7.32;76.83
37298;BME280;30517;51.932;4.278;2024-03-06T11:09:39;102326.16;;;7.24;77.14
37298;BME280;30517;51.932;4.278;2024-03-06T11:12:37;102340.84;;;7.43;76.87
37298;BME280;30517;51.932;4.278;2024-03-06T11:15:19;102347.38;;;7.30;76.85
37298;BME280;30517;51.932;4.278;2024-03-06T11:27:02;102344.53;;;7.24;77.52
37298;BME280;30517;51.932;4.278;2024-03-06T11:30:07;102358.84;;;7.32;77.52
37298;BME280;30517;51.932;4.278;2024-03-06T11:33:03;102356.91;;;7.28;77.65
37298;BME280;30517;51.932;4.278;2024-03-06T11:39:07;102345.31;;;7.21;77.62
37298;BME280;30517;51.932;4.278;2024-03-06T11:41:49;102353.31;;;7.24;77.89
37298;BME280;30517;51.932;4.278;2024-03-06T11:44:31;102365.13;;;7.37;77.49
37298;BME280;30517;51.932;4.278;2024-03-06T11:47:12;102353.56;;;7.32;77.46
37298;BME280;30517;51.932;4.278;2024-03-06T11:49:54;102358.97;;;7.37;78.05
37298;BME280;30517;51.932;4.278;2024-03-06T11:52:35;102364.50;;;7.44;77.47
37298;BME280;30517;51.932;4.278;2024-03-06T11:55:16;102346.75;;;7.37;77.64
37298;BME280;30517;51.932;4.278;2024-03-06T11:57:56;102350.09;;;7.33;77.80
37298;BME280;30517;51.932;4.278;2024-03-06T12:00:37;102379.53;;;7.48;77.72
37298;BME280;30517;51.932;4.278;2024-03-06T12:03:18;102354.75;;;7.40;77.62
37298;BME280;30517;51.932;4.278;2024-03-06T12:06:00;102356.25;;;7.34;77.63
37298;BME280;30517;51.932;4.278;2024-03-06T12:08:40;102359.41;;;7.49;77.80
37298;BME280;30517;51.932;4.278;2024-03-06T12:11:21;102350.66;;;7.48;77.74
37298;BME280;30517;51.932;4.278;2024-03-06T12:14:02;102367.44;;;7.53;77.74
37298;BME280;30517;51.932;4.278;2024-03-06T12:16:44;102363.81;;;7.50;77.53
37298;BME280;30517;51.932;4.278;2024-03-06T12:19:35;102338.31;;;7.46;77.10
37298;BME280;30517;51.932;4.278;2024-03-06T12:22:16;102370.59;;;7.69;77.18
37298;BME280;30517;51.932;4.278;2024-03-06T12:25:00;102367.66;;;7.60;77.66
37298;BME280;30517;51.932;4.278;2024-03-06T12:27:41;102359.69;;;7.57;77.49
37298;BME280;30517;51.932;4.278;2024-03-06T12:30:22;102367.81;;;7.64;77.08
37298;BME280;30517;51.932;4.278;2024-03-06T12:33:03;102386.66;;;7.78;76.75
37298;BME280;30517;51.932;4.278;2024-03-06T12:35:44;102367.97;;;7.69;77.24
37298;BME280;30517;51.932;4.278;2024-03-06T12:38:28;102378.69;;;7.75;77.57
37298;BME280;30517;51.932;4.278;2024-03-06T12:41:09;102367.81;;;7.64;77.13
37298;BME280;30517;51.932;4.278;2024-03-06T12:43:50;102366.97;;;7.65;77.34
37298;BME280;30517;51.932;4.278;2024-03-06T12:46:31;102387.81;;;7.86;76.75
37298;BME280;30517;51.932;4.278;2024-03-06T12:49:12;102383.38;;;7.85;76.63
37298;BME280;30517;51.932;4.278;2024-03-06T12:51:53;102389.75;;;7.92;76.53
37298;BME280;30517;51.932;4.278;2024-03-06T12:54:34;102361.38;;;7.82;76.70
37298;BME280;30517;51.932;4.278;2024-03-06T12:57:15;102390.72;;;7.94;76.75
37298;BME280;30517;51.932;4.278;2024-03-06T12:59:56;102372.97;;;7.88;76.83
37298;BME280;30517;51.932;4.278;2024-03-06T13:02:37;102383.81;;;7.97;76.80
37298;BME280;30517;51.932;4.278;2024-03-06T13:05:17;102391.06;;;8.05;76.57
37298;BME280;30517;51.932;4.278;2024-03-06T13:07:59;102391.19;;;8.09;76.79
37298;BME280;30517;51.932;4.278;2024-03-06T13:10:41;102350.38;;;7.93;76.78
37298;BME280;30517;51.932;4.278;2024-03-06T13:13:23;102377.16;;;8.09;76.97
37298;BME280;30517;51.932;4.278;2024-03-06T13:16:04;102363.94;;;8.06;76.90
37298;BME280;30517;51.932;4.278;2024-03-06T13:18:45;102376.44;;;8.13;76.66
37298;BME280;30517;51.932;4.278;2024-03-06T13:21:26;102385.50;;;8.23;76.72
37298;BME280;30517;51.932;4.278;2024-03-06T13:24:07;102366.84;;;8.15;76.57
37298;BME280;30517;51.932;4.278;2024-03-06T13:26:47;102350.19;;;8.14;76.87
37298;BME280;30517;51.932;4.278;2024-03-06T13:29:28;102376.78;;;8.24;76.70
37298;BME280;30517;51.932;4.278;2024-03-06T13:32:09;102371.56;;;8.25;77.10
37298;BME280;30517;51.932;4.278;2024-03-06T13:34:50;102373.47;;;8.31;76.88
37298;BME280;30517;51.932;4.278;2024-03-06T13:37:32;102358.25;;;8.20;76.68
37298;BME280;30517;51.932;4.278;2024-03-06T13:40:12;102377.09;;;8.34;77.11
37298;BME280;30517;51.932;4.278;2024-03-06T13:42:53;102367.41;;;8.32;77.00
37298;BME280;30517;51.932;4.278;2024-03-06T13:45:34;102372.84;;;8.38;76.79
37298;BME280;30517;51.932;4.278;2024-03-06T13:48:15;102390.81;;;8.51;76.79
37298;BME280;30517;51.932;4.278;2024-03-06T13:50:56;102380.53;;;8.59;76.57
37298;BME280;30517;51.932;4.278;2024-03-06T13:53:37;102396.59;;;8.68;75.71
37298;BME280;30517;51.932;4.278;2024-03-06T13:56:18;102378.78;;;8.59;76.21
37298;BME280;30517;51.932;4.278;2024-03-06T13:58:59;102395.88;;;8.74;76.35
37298;BME280;30517;51.932;4.278;2024-03-06T14:01:39;102389.06;;;8.80;75.82
37298;BME280;30517;51.932;4.278;2024-03-06T14:04:20;102390.31;;;8.93;75.47
37298;BME280;30517;51.932;4.278;2024-03-06T14:07:01;102397.72;;;9.06;74.98
37298;BME280;30517;51.932;4.278;2024-03-06T14:09:42;102393.53;;;9.13;75.06
37298;BME280;30517;51.932;4.278;2024-03-06T14:12:23;102390.97;;;9.16;75.15
37298;BME280;30517;51.932;4.278;2024-03-06T14:15:05;102387.66;;;9.23;74.52
37298;BME280;30517;51.932;4.278;2024-03-06T14:17:53;102388.75;;;9.31;74.31
37298;BME280;30517;51.932;4.278;2024-03-06T14:20:34;102397.09;;;9.47;73.60
37298;BME280;30517;51.932;4.278;2024-03-06T14:23:15;102388.16;;;9.42;74.14
37298;BME280;30517;51.932;4.278;2024-03-06T14:25:56;102391.81;;;9.47;73.57
37298;BME280;30517;51.932;4.278;2024-03-06T14:28:36;102385.00;;;9.55;73.66